Sturkie, Arkansas
Current Conditions -  °F | °C
As of 12:53 PM on Friday 31 Oct 2014 (Local Time) from KUNO Reporting Station
Clear Clear  
Wind Chill: 43°   Ceiling: Unl
Heat Index: 49°   Visibility: 10mi
Dew Point: 23°   Wind: 17mph
Humidity: 36%   Direction: 350°N
Pressure: 30.27"   Gusts: 30mph
Location:  36.46°N, 91.87°W
Report Text: KUNO 311753Z AUTO 35015G26KT 10SM CLR 09/M05 A3027 RMK AO2 PK WND 34026/1749 SLP253 T00941050 10100 20078 51011
Loading
Personal Weather Stations






























Interactive Weather Map
Tropical Storm Tracking
New forecast layout! Learn more

10-Day Weather Forecast

Advertisements
Track Severe Weather on mobile